TimeCDT,TemperatureF,Dew PointF,Humidity,Sea Level PressureIn,VisibilityMPH,Wind Direction,Wind SpeedMPH,Gust SpeedMPH,PrecipitationIn,Events,Conditions,WindDirDegrees,DateUTC
12:53 AM,53.1,50.0,89,30.04,6.0,Calm,Calm,-,N/A,Rain,Light Rain,0,2013-10-16 05:53:00
1:53 AM,52.0,50.0,93,30.06,6.0,WSW,3.5,-,N/A,Rain,Light Rain,250,2013-10-16 06:53:00
2:01 AM,51.8,50.0,94,30.06,6.0,Variable,3.5,-,0.00,Rain,Light Rain,0,2013-10-16 07:01:00
2:13 AM,51.8,50.0,94,30.07,2.0,Calm,Calm,-,0.00,Rain,Heavy Rain,0,2013-10-16 07:13:00
2:26 AM,51.8,50.0,94,30.07,4.0,Variable,3.5,-,N/A,Rain,Rain,0,2013-10-16 07:26:00
2:53 AM,52.0,50.0,93,30.06,6.0,Calm,Calm,-,N/A,Rain,Light Rain,0,2013-10-16 07:53:00
3:28 AM,51.8,50.0,94,30.06,4.0,Calm,Calm,-,N/A,Rain,Rain,0,2013-10-16 08:28:00
3:40 AM,51.8,50.0,94,30.05,4.0,Variable,3.5,-,N/A,Rain,Light Rain,0,2013-10-16 08:40:00
3:53 AM,52.0,50.0,93,30.05,5.0,NW,3.5,-,N/A,Rain,Light Rain,320,2013-10-16 08:53:00
4:53 AM,51.1,48.9,92,30.03,10.0,Calm,Calm,-,0.00,,Overcast,0,2013-10-16 09:53:00
5:53 AM,50.0,46.9,89,30.03,10.0,Calm,Calm,-,N/A,,Overcast,0,2013-10-16 10:53:00
6:53 AM,48.9,46.9,93,30.04,10.0,Calm,Calm,-,0.01,,Overcast,0,2013-10-16 11:53:00
7:53 AM,46.9,44.1,90,30.06,10.0,Calm,Calm,-,N/A,,Partly Cloudy,0,2013-10-16 12:53:00
8:53 AM,48.0,43.0,83,30.09,10.0,NW,4.6,-,N/A,,Clear,320,2013-10-16 13:53:00
9:53 AM,51.1,43.0,74,30.08,10.0,Variable,5.8,-,0.01,,Clear,0,2013-10-16 14:53:00
10:53 AM,54.0,43.0,66,30.08,10.0,Calm,Calm,-,N/A,,Clear,0,2013-10-16 15:53:00
11:53 AM,57.0,42.1,57,30.07,10.0,Variable,5.8,-,0.01,,Clear,0,2013-10-16 16:53:00
12:53 PM,60.1,43.0,53,30.04,10.0,Variable,3.5,-,N/A,,Clear,0,2013-10-16 17:53:00
1:53 PM,61.0,42.1,50,30.00,10.0,Variable,4.6,-,0.01,,Clear,0,2013-10-16 18:53:00
2:53 PM,62.1,42.1,48,29.98,10.0,West,4.6,-,N/A,,Scattered Clouds,270,2013-10-16 19:53:00
3:53 PM,63.0,42.1,46,29.98,10.0,Variable,4.6,-,0.01,,Overcast,0,2013-10-16 20:53:00
4:53 PM,63.0,42.1,46,29.97,10.0,Variable,3.5,-,N/A,,Clear,0,2013-10-16 21:53:00
5:53 PM,60.1,44.1,55,29.98,10.0,Calm,Calm,-,0.01,,Clear,0,2013-10-16 22:53:00
6:53 PM,55.9,46.9,72,29.98,10.0,Calm,Calm,-,N/A,,Overcast,0,2013-10-16 23:53:00
7:53 PM,55.0,50.0,83,29.99,10.0,Calm,Calm,-,0.01,Rain,Light Rain,0,2013-10-17 00:53:00
8:53 PM,54.0,48.9,83,30.01,10.0,Calm,Calm,-,0.00,,Overcast,0,2013-10-17 01:53:00
9:53 PM,54.0,44.1,69,30.01,10.0,North,4.6,-,0.00,,Scattered Clouds,350,2013-10-17 02:53:00
10:53 PM,53.1,44.1,71,30.01,10.0,NNW,3.5,-,0.01,,Mostly Cloudy,330,2013-10-17 03:53:00
11:53 PM,51.1,43.0,74,30.02,10.0,Calm,Calm,-,N/A,,Overcast,0,2013-10-17 04:53:00